sensor_id;sensor_type;location;lat;lon;timestamp;P1;durP1;ratioP1;P2;durP2;ratioP2
11642;SDS011;5877;50.930;6.918;2022-08-18T00:01:13;15.87;;;14.37;;
11642;SDS011;5877;50.930;6.918;2022-08-18T00:03:45;16.03;;;14.60;;
11642;SDS011;5877;50.930;6.918;2022-08-18T00:06:29;15.43;;;14.03;;
11642;SDS011;5877;50.930;6.918;2022-08-18T00:08:56;16.37;;;14.97;;
11642;SDS011;5877;50.930;6.918;2022-08-18T00:11:26;16.60;;;15.07;;
11642;SDS011;5877;50.930;6.918;2022-08-18T00:14:09;17.83;;;16.00;;
11642;SDS011;5877;50.930;6.918;2022-08-18T00:16:49;18.40;;;16.70;;
11642;SDS011;5877;50.930;6.918;2022-08-18T00:19:17;17.97;;;16.17;;
11642;SDS011;5877;50.930;6.918;2022-08-18T00:22:06;20.00;;;18.00;;
11642;SDS011;5877;50.930;6.918;2022-08-18T00:24:40;19.23;;;17.60;;
11642;SDS011;5877;50.930;6.918;2022-08-18T00:27:15;19.53;;;17.83;;
11642;SDS011;5877;50.930;6.918;2022-08-18T00:29:49;18.63;;;16.93;;
11642;SDS011;5877;50.930;6.918;2022-08-18T00:32:19;18.17;;;16.43;;
11642;SDS011;5877;50.930;6.918;2022-08-18T00:34:51;19.00;;;17.33;;
11642;SDS011;5877;50.930;6.918;2022-08-18T00:37:21;20.67;;;18.70;;
11642;SDS011;5877;50.930;6.918;2022-08-18T00:39:50;20.07;;;18.10;;
11642;SDS011;5877;50.930;6.918;2022-08-18T00:42:20;20.23;;;18.23;;
11642;SDS011;5877;50.930;6.918;2022-08-18T00:45:00;21.20;;;19.00;;
11642;SDS011;5877;50.930;6.918;2022-08-18T00:47:30;19.67;;;17.97;;
11642;SDS011;5877;50.930;6.918;2022-08-18T00:50:10;19.00;;;17.20;;
11642;SDS011;5877;50.930;6.918;2022-08-18T00:52:44;21.07;;;19.17;;
11642;SDS011;5877;50.930;6.918;2022-08-18T00:55:19;20.23;;;18.27;;
11642;SDS011;5877;50.930;6.918;2022-08-18T00:57:47;20.57;;;18.33;;
11642;SDS011;5877;50.930;6.918;2022-08-18T01:00:16;20.47;;;18.53;;
11642;SDS011;5877;50.930;6.918;2022-08-18T01:02:44;20.33;;;18.43;;
11642;SDS011;5877;50.930;6.918;2022-08-18T01:05:27;19.87;;;17.87;;
11642;SDS011;5877;50.930;6.918;2022-08-18T01:07:59;19.83;;;18.07;;
11642;SDS011;5877;50.930;6.918;2022-08-18T01:10:26;22.00;;;19.90;;
11642;SDS011;5877;50.930;6.918;2022-08-18T01:12:56;21.67;;;19.63;;
11642;SDS011;5877;50.930;6.918;2022-08-18T01:15:24;19.93;;;18.10;;
11642;SDS011;5877;50.930;6.918;2022-08-18T01:17:56;19.57;;;17.67;;
11642;SDS011;5877;50.930;6.918;2022-08-18T01:20:51;19.47;;;17.57;;
11642;SDS011;5877;50.930;6.918;2022-08-18T01:23:38;19.77;;;17.50;;
11642;SDS011;5877;50.930;6.918;2022-08-18T01:26:06;19.90;;;17.87;;
11642;SDS011;5877;50.930;6.918;2022-08-18T01:28:39;22.33;;;19.70;;
11642;SDS011;5877;50.930;6.918;2022-08-18T01:31:12;24.03;;;21.83;;
11642;SDS011;5877;50.930;6.918;2022-08-18T01:33:56;23.20;;;20.90;;
11642;SDS011;5877;50.930;6.918;2022-08-18T01:36:24;25.30;;;22.87;;
11642;SDS011;5877;50.930;6.918;2022-08-18T01:38:52;26.30;;;23.80;;
11642;SDS011;5877;50.930;6.918;2022-08-18T01:41:19;25.77;;;23.27;;
11642;SDS011;5877;50.930;6.918;2022-08-18T01:43:57;25.70;;;23.20;;
11642;SDS011;5877;50.930;6.918;2022-08-18T01:46:25;25.83;;;23.13;;
11642;SDS011;5877;50.930;6.918;2022-08-18T01:48:53;27.40;;;24.60;;
11642;SDS011;5877;50.930;6.918;2022-08-18T01:51:22;25.50;;;23.03;;
11642;SDS011;5877;50.930;6.918;2022-08-18T01:54:08;25.70;;;23.27;;
11642;SDS011;5877;50.930;6.918;2022-08-18T01:56:37;25.43;;;22.93;;
11642;SDS011;5877;50.930;6.918;2022-08-18T01:59:04;24.43;;;22.13;;
11642;SDS011;5877;50.930;6.918;2022-08-18T02:01:36;25.60;;;23.13;;
11642;SDS011;5877;50.930;6.918;2022-08-18T02:04:18;26.73;;;24.23;;
11642;SDS011;5877;50.930;6.918;2022-08-18T02:07:03;27.43;;;23.63;;
11642;SDS011;5877;50.930;6.918;2022-08-18T02:09:32;28.30;;;25.50;;
11642;SDS011;5877;50.930;6.918;2022-08-18T02:12:00;23.87;;;21.33;;
11642;SDS011;5877;50.930;6.918;2022-08-18T02:14:28;25.20;;;22.83;;
11642;SDS011;5877;50.930;6.918;2022-08-18T02:16:57;24.80;;;22.30;;
11642;SDS011;5877;50.930;6.918;2022-08-18T02:19:36;26.53;;;24.03;;
11642;SDS011;5877;50.930;6.918;2022-08-18T02:22:06;27.37;;;24.60;;
11642;SDS011;5877;50.930;6.918;2022-08-18T02:24:35;26.00;;;23.30;;
11642;SDS011;5877;50.930;6.918;2022-08-18T02:27:04;26.20;;;23.40;;
11642;SDS011;5877;50.930;6.918;2022-08-18T02:29:31;28.07;;;25.30;;
11642;SDS011;5877;50.930;6.918;2022-08-18T02:31:58;26.93;;;24.33;;
11642;SDS011;5877;50.930;6.918;2022-08-18T02:34:25;26.07;;;23.63;;
11642;SDS011;5877;50.930;6.918;2022-08-18T02:36:54;27.00;;;24.33;;
11642;SDS011;5877;50.930;6.918;2022-08-18T02:39:21;27.80;;;25.10;;
11642;SDS011;5877;50.930;6.918;2022-08-18T02:41:48;28.83;;;26.23;;
11642;SDS011;5877;50.930;6.918;2022-08-18T02:44:16;28.97;;;26.07;;
11642;SDS011;5877;50.930;6.918;2022-08-18T02:46:44;27.43;;;24.50;;
11642;SDS011;5877;50.930;6.918;2022-08-18T02:49:11;28.10;;;25.50;;
11642;SDS011;5877;50.930;6.918;2022-08-18T02:51:38;27.97;;;25.07;;
11642;SDS011;5877;50.930;6.918;2022-08-18T02:54:05;29.93;;;26.77;;
11642;SDS011;5877;50.930;6.918;2022-08-18T02:56:38;30.30;;;27.30;;
11642;SDS011;5877;50.930;6.918;2022-08-18T02:59:13;30.87;;;27.87;;
11642;SDS011;5877;50.930;6.918;2022-08-18T03:01:43;31.97;;;28.83;;
11642;SDS011;5877;50.930;6.918;2022-08-18T03:04:15;31.93;;;28.73;;
11642;SDS011;5877;50.930;6.918;2022-08-18T03:06:50;29.57;;;26.57;;
11642;SDS011;5877;50.930;6.918;2022-08-18T03:09:18;30.40;;;27.50;;
11642;SDS011;5877;50.930;6.918;2022-08-18T03:11:45;31.17;;;28.10;;
11642;SDS011;5877;50.930;6.918;2022-08-18T03:14:13;30.30;;;27.40;;
11642;SDS011;5877;50.930;6.918;2022-08-18T03:16:44;30.33;;;27.40;;
11642;SDS011;5877;50.930;6.918;2022-08-18T03:19:24;30.97;;;28.03;;
11642;SDS011;5877;50.930;6.918;2022-08-18T03:21:55;30.03;;;27.10;;
11642;SDS011;5877;50.930;6.918;2022-08-18T03:24:28;27.53;;;24.93;;
11642;SDS011;5877;50.930;6.918;2022-08-18T03:26:58;28.97;;;26.27;;
11642;SDS011;5877;50.930;6.918;2022-08-18T03:29:25;33.80;;;30.20;;
11642;SDS011;5877;50.930;6.918;2022-08-18T03:31:58;30.27;;;27.27;;
11642;SDS011;5877;50.930;6.918;2022-08-18T03:34:28;33.00;;;29.77;;
11642;SDS011;5877;50.930;6.918;2022-08-18T03:36:55;32.80;;;29.63;;
11642;SDS011;5877;50.930;6.918;2022-08-18T03:39:22;32.33;;;28.97;;
11642;SDS011;5877;50.930;6.918;2022-08-18T03:41:51;39.10;;;35.00;;
11642;SDS011;5877;50.930;6.918;2022-08-18T03:44:25;39.33;;;35.33;;
11642;SDS011;5877;50.930;6.918;2022-08-18T03:46:54;36.40;;;32.67;;
11642;SDS011;5877;50.930;6.918;2022-08-18T03:49:22;39.23;;;35.33;;
11642;SDS011;5877;50.930;6.918;2022-08-18T03:51:49;37.50;;;33.70;;
11642;SDS011;5877;50.930;6.918;2022-08-18T03:54:17;37.07;;;33.33;;
11642;SDS011;5877;50.930;6.918;2022-08-18T03:56:46;35.83;;;32.37;;
11642;SDS011;5877;50.930;6.918;2022-08-18T03:59:16;36.13;;;32.57;;
11642;SDS011;5877;50.930;6.918;2022-08-18T04:01:49;36.67;;;33.17;;
11642;SDS011;5877;50.930;6.918;2022-08-18T04:04:18;36.37;;;32.67;;
11642;SDS011;5877;50.930;6.918;2022-08-18T04:06:48;38.90;;;34.27;;
11642;SDS011;5877;50.930;6.918;2022-08-18T04:09:20;44.07;;;39.40;;
11642;SDS011;5877;50.930;6.918;2022-08-18T04:11:48;51.00;;;45.87;;
11642;SDS011;5877;50.930;6.918;2022-08-18T04:14:18;44.50;;;39.87;;
11642;SDS011;5877;50.930;6.918;2022-08-18T04:16:47;41.43;;;37.17;;
11642;SDS011;5877;50.930;6.918;2022-08-18T04:19:15;41.90;;;37.60;;
11642;SDS011;5877;50.930;6.918;2022-08-18T04:21:54;44.07;;;39.63;;
11642;SDS011;5877;50.930;6.918;2022-08-18T04:24:25;45.47;;;40.47;;
11642;SDS011;5877;50.930;6.918;2022-08-18T04:26:58;46.67;;;41.70;;
11642;SDS011;5877;50.930;6.918;2022-08-18T04:29:26;46.57;;;41.63;;
11642;SDS011;5877;50.930;6.918;2022-08-18T04:31:54;47.10;;;42.13;;
11642;SDS011;5877;50.930;6.918;2022-08-18T04:34:21;47.53;;;42.63;;
11642;SDS011;5877;50.930;6.918;2022-08-18T04:36:49;47.57;;;42.30;;
11642;SDS011;5877;50.930;6.918;2022-08-18T04:39:20;47.87;;;42.77;;
11642;SDS011;5877;50.930;6.918;2022-08-18T04:41:48;49.37;;;42.97;;
11642;SDS011;5877;50.930;6.918;2022-08-18T04:44:16;51.80;;;43.67;;
11642;SDS011;5877;50.930;6.918;2022-08-18T04:46:45;46.73;;;41.73;;
11642;SDS011;5877;50.930;6.918;2022-08-18T04:49:24;50.77;;;42.17;;
11642;SDS011;5877;50.930;6.918;2022-08-18T04:51:52;50.60;;;43.67;;
11642;SDS011;5877;50.930;6.918;2022-08-18T04:54:59;49.07;;;43.17;;
11642;SDS011;5877;50.930;6.918;2022-08-18T04:57:27;50.43;;;43.73;;
11642;SDS011;5877;50.930;6.918;2022-08-18T05:00:00;52.13;;;43.97;;
11642;SDS011;5877;50.930;6.918;2022-08-18T05:02:28;51.00;;;44.37;;
11642;SDS011;5877;50.930;6.918;2022-08-18T05:04:57;54.63;;;45.87;;
11642;SDS011;5877;50.930;6.918;2022-08-18T05:07:24;49.97;;;42.90;;
11642;SDS011;5877;50.930;6.918;2022-08-18T05:09:53;48.83;;;43.20;;
11642;SDS011;5877;50.930;6.918;2022-08-18T05:12:21;51.97;;;43.30;;
11642;SDS011;5877;50.930;6.918;2022-08-18T05:14:52;51.47;;;42.67;;
11642;SDS011;5877;50.930;6.918;2022-08-18T05:17:19;52.87;;;43.03;;
11642;SDS011;5877;50.930;6.918;2022-08-18T05:19:49;55.97;;;45.07;;
11642;SDS011;5877;50.930;6.918;2022-08-18T05:22:17;54.93;;;45.13;;
11642;SDS011;5877;50.930;6.918;2022-08-18T05:24:56;53.50;;;45.43;;
11642;SDS011;5877;50.930;6.918;2022-08-18T05:27:23;58.07;;;45.60;;
11642;SDS011;5877;50.930;6.918;2022-08-18T05:29:51;57.37;;;45.13;;
11642;SDS011;5877;50.930;6.918;2022-08-18T05:32:18;55.63;;;46.07;;
11642;SDS011;5877;50.930;6.918;2022-08-18T05:35:06;60.13;;;46.37;;
11642;SDS011;5877;50.930;6.918;2022-08-18T05:37:51;60.27;;;45.37;;
11642;SDS011;5877;50.930;6.918;2022-08-18T05:40:24;59.67;;;46.50;;
11642;SDS011;5877;50.930;6.918;2022-08-18T05:42:51;60.80;;;47.20;;
11642;SDS011;5877;50.930;6.918;2022-08-18T05:45:23;59.43;;;47.70;;
11642;SDS011;5877;50.930;6.918;2022-08-18T05:47:50;60.50;;;47.20;;
11642;SDS011;5877;50.930;6.918;2022-08-18T05:50:25;63.43;;;48.00;;
11642;SDS011;5877;50.930;6.918;2022-08-18T05:53:07;60.03;;;46.27;;
11642;SDS011;5877;50.930;6.918;2022-08-18T05:55:45;64.30;;;47.87;;
11642;SDS011;5877;50.930;6.918;2022-08-18T05:58:37;64.30;;;48.33;;
11642;SDS011;5877;50.930;6.918;2022-08-18T06:01:10;66.60;;;49.73;;
11642;SDS011;5877;50.930;6.918;2022-08-18T06:03:46;62.87;;;49.57;;
11642;SDS011;5877;50.930;6.918;2022-08-18T06:06:17;65.77;;;49.57;;
11642;SDS011;5877;50.930;6.918;2022-08-18T06:11:45;67.83;;;48.63;;
11642;SDS011;5877;50.930;6.918;2022-08-18T06:14:15;68.77;;;51.43;;
11642;SDS011;5877;50.930;6.918;2022-08-18T06:16:58;74.57;;;52.03;;
11642;SDS011;5877;50.930;6.918;2022-08-18T06:19:44;71.53;;;50.47;;
11642;SDS011;5877;50.930;6.918;2022-08-18T06:33:06;77.37;;;48.53;;
11642;SDS011;5877;50.930;6.918;2022-08-18T06:35:53;72.73;;;48.10;;
11642;SDS011;5877;50.930;6.918;2022-08-18T06:41:14;68.80;;;47.90;;
11642;SDS011;5877;50.930;6.918;2022-08-18T06:52:49;62.40;;;45.03;;
11642;SDS011;5877;50.930;6.918;2022-08-18T06:55:35;62.20;;;44.33;;
11642;SDS011;5877;50.930;6.918;2022-08-18T06:58:03;65.00;;;47.33;;
11642;SDS011;5877;50.930;6.918;2022-08-18T07:08:50;52.17;;;39.47;;
11642;SDS011;5877;50.930;6.918;2022-08-18T07:11:24;50.90;;;39.70;;
11642;SDS011;5877;50.930;6.918;2022-08-18T07:13:55;46.43;;;37.00;;
11642;SDS011;5877;50.930;6.918;2022-08-18T07:16:42;40.87;;;35.43;;
11642;SDS011;5877;50.930;6.918;2022-08-18T07:19:27;38.70;;;31.27;;
11642;SDS011;5877;50.930;6.918;2022-08-18T07:22:14;35.83;;;31.77;;
11642;SDS011;5877;50.930;6.918;2022-08-18T07:24:45;36.83;;;32.90;;
11642;SDS011;5877;50.930;6.918;2022-08-18T07:27:19;36.03;;;32.13;;
11642;SDS011;5877;50.930;6.918;2022-08-18T07:32:27;40.60;;;32.80;;
11642;SDS011;5877;50.930;6.918;2022-08-18T07:35:00;40.13;;;33.53;;
11642;SDS011;5877;50.930;6.918;2022-08-18T07:40:21;36.40;;;30.73;;
11642;SDS011;5877;50.930;6.918;2022-08-18T07:42:55;36.73;;;31.30;;
11642;SDS011;5877;50.930;6.918;2022-08-18T07:48:01;33.53;;;28.63;;
11642;SDS011;5877;50.930;6.918;2022-08-18T08:08:32;33.87;;;30.23;;
11642;SDS011;5877;50.930;6.918;2022-08-18T08:11:15;32.43;;;27.67;;
11642;SDS011;5877;50.930;6.918;2022-08-18T08:13:59;30.97;;;27.70;;
11642;SDS011;5877;50.930;6.918;2022-08-18T08:16:42;31.83;;;28.43;;
11642;SDS011;5877;50.930;6.918;2022-08-18T08:22:21;34.60;;;27.73;;
11642;SDS011;5877;50.930;6.918;2022-08-18T08:25:11;31.70;;;28.03;;
11642;SDS011;5877;50.930;6.918;2022-08-18T08:34:14;31.83;;;26.93;;
11642;SDS011;5877;50.930;6.918;2022-08-18T08:36:47;29.20;;;26.27;;
11642;SDS011;5877;50.930;6.918;2022-08-18T08:42:13;27.80;;;24.90;;
11642;SDS011;5877;50.930;6.918;2022-08-18T08:45:20;27.00;;;24.10;;
11642;SDS011;5877;50.930;6.918;2022-08-18T08:48:05;27.13;;;24.30;;
11642;SDS011;5877;50.930;6.918;2022-08-18T08:50:57;27.30;;;24.60;;
11642;SDS011;5877;50.930;6.918;2022-08-18T08:53:30;27.50;;;24.57;;
11642;SDS011;5877;50.930;6.918;2022-08-18T08:56:02;24.63;;;22.13;;
11642;SDS011;5877;50.930;6.918;2022-08-18T09:01:06;26.17;;;23.37;;
11642;SDS011;5877;50.930;6.918;2022-08-18T09:03:45;27.43;;;24.50;;
11642;SDS011;5877;50.930;6.918;2022-08-18T09:06:25;26.93;;;24.13;;
11642;SDS011;5877;50.930;6.918;2022-08-18T09:14:52;26.13;;;23.43;;
11642;SDS011;5877;50.930;6.918;2022-08-18T09:17:41;30.97;;;27.63;;
11642;SDS011;5877;50.930;6.918;2022-08-18T09:23:17;24.07;;;21.43;;
11642;SDS011;5877;50.930;6.918;2022-08-18T09:25:55;24.17;;;21.63;;
11642;SDS011;5877;50.930;6.918;2022-08-18T09:42:36;20.97;;;18.87;;
11642;SDS011;5877;50.930;6.918;2022-08-18T09:48:00;18.77;;;17.00;;
11642;SDS011;5877;50.930;6.918;2022-08-18T09:50:56;18.70;;;16.93;;
11642;SDS011;5877;50.930;6.918;2022-08-18T09:56:13;21.77;;;19.77;;
11642;SDS011;5877;50.930;6.918;2022-08-18T09:59:02;22.80;;;20.40;;
11642;SDS011;5877;50.930;6.918;2022-08-18T10:01:54;21.33;;;19.30;;
11642;SDS011;5877;50.930;6.918;2022-08-18T10:04:30;20.27;;;18.27;;
11642;SDS011;5877;50.930;6.918;2022-08-18T10:10:22;21.77;;;19.67;;
11642;SDS011;5877;50.930;6.918;2022-08-18T10:24:29;22.10;;;20.00;;
11642;SDS011;5877;50.930;6.918;2022-08-18T10:33:06;24.43;;;22.07;;
11642;SDS011;5877;50.930;6.918;2022-08-18T10:35:54;23.47;;;21.37;;
11642;SDS011;5877;50.930;6.918;2022-08-18T10:38:28;20.60;;;18.70;;
11642;SDS011;5877;50.930;6.918;2022-08-18T10:41:26;18.57;;;16.83;;
11642;SDS011;5877;50.930;6.918;2022-08-18T10:43:57;17.57;;;15.93;;
11642;SDS011;5877;50.930;6.918;2022-08-18T10:46:26;21.20;;;19.20;;
11642;SDS011;5877;50.930;6.918;2022-08-18T10:51:51;18.27;;;16.53;;
11642;SDS011;5877;50.930;6.918;2022-08-18T10:57:31;21.37;;;19.47;;
11642;SDS011;5877;50.930;6.918;2022-08-18T11:06:59;20.73;;;18.80;;
11642;SDS011;5877;50.930;6.918;2022-08-18T11:09:34;18.67;;;16.97;;
11642;SDS011;5877;50.930;6.918;2022-08-18T11:12:07;18.80;;;17.00;;
11642;SDS011;5877;50.930;6.918;2022-08-18T11:19:59;18.60;;;16.77;;
11642;SDS011;5877;50.930;6.918;2022-08-18T11:22:30;16.27;;;14.77;;
11642;SDS011;5877;50.930;6.918;2022-08-18T11:25:02;16.10;;;14.70;;
11642;SDS011;5877;50.930;6.918;2022-08-18T11:27:44;16.40;;;14.80;;
11642;SDS011;5877;50.930;6.918;2022-08-18T11:30:13;16.33;;;14.20;;
11642;SDS011;5877;50.930;6.918;2022-08-18T11:32:43;15.80;;;14.10;;
11642;SDS011;5877;50.930;6.918;2022-08-18T11:35:19;16.80;;;15.20;;
11642;SDS011;5877;50.930;6.918;2022-08-18T11:37:54;16.87;;;15.37;;
11642;SDS011;5877;50.930;6.918;2022-08-18T11:45:54;19.30;;;17.20;;
11642;SDS011;5877;50.930;6.918;2022-08-18T11:51:21;21.57;;;19.50;;
11642;SDS011;5877;50.930;6.918;2022-08-18T11:53:54;18.80;;;16.97;;
11642;SDS011;5877;50.930;6.918;2022-08-18T11:56:46;18.47;;;16.50;;
11642;SDS011;5877;50.930;6.918;2022-08-18T12:02:16;16.03;;;14.37;;
11642;SDS011;5877;50.930;6.918;2022-08-18T12:04:47;15.57;;;14.17;;
11642;SDS011;5877;50.930;6.918;2022-08-18T12:07:25;19.27;;;17.47;;
11642;SDS011;5877;50.930;6.918;2022-08-18T12:12:54;15.57;;;14.07;;
11642;SDS011;5877;50.930;6.918;2022-08-18T12:15:30;15.33;;;13.97;;
11642;SDS011;5877;50.930;6.918;2022-08-18T12:18:16;16.30;;;14.80;;
11642;SDS011;5877;50.930;6.918;2022-08-18T12:20:55;16.67;;;15.10;;
11642;SDS011;5877;50.930;6.918;2022-08-18T12:23:24;17.67;;;15.87;;
11642;SDS011;5877;50.930;6.918;2022-08-18T12:25:51;16.07;;;14.57;;
11642;SDS011;5877;50.930;6.918;2022-08-18T12:28:18;16.77;;;15.00;;
11642;SDS011;5877;50.930;6.918;2022-08-18T12:30:48;16.93;;;15.30;;
11642;SDS011;5877;50.930;6.918;2022-08-18T12:33:24;16.53;;;14.80;;
11642;SDS011;5877;50.930;6.918;2022-08-18T12:36:12;16.70;;;14.90;;
11642;SDS011;5877;50.930;6.918;2022-08-18T12:38:42;19.40;;;16.03;;
11642;SDS011;5877;50.930;6.918;2022-08-18T12:41:18;20.80;;;16.10;;
11642;SDS011;5877;50.930;6.918;2022-08-18T12:43:50;18.87;;;14.90;;
11642;SDS011;5877;50.930;6.918;2022-08-18T12:46:29;15.43;;;13.33;;
11642;SDS011;5877;50.930;6.918;2022-08-18T12:48:57;15.40;;;13.93;;
11642;SDS011;5877;50.930;6.918;2022-08-18T12:51:24;17.80;;;14.57;;
11642;SDS011;5877;50.930;6.918;2022-08-18T12:53:58;18.70;;;15.63;;
11642;SDS011;5877;50.930;6.918;2022-08-18T12:56:26;17.53;;;15.93;;
11642;SDS011;5877;50.930;6.918;2022-08-18T12:58:57;16.83;;;15.33;;
11642;SDS011;5877;50.930;6.918;2022-08-18T13:01:31;17.50;;;15.87;;
11642;SDS011;5877;50.930;6.918;2022-08-18T13:04:00;16.37;;;14.77;;
11642;SDS011;5877;50.930;6.918;2022-08-18T13:06:41;16.00;;;13.77;;
11642;SDS011;5877;50.930;6.918;2022-08-18T13:09:28;15.33;;;12.80;;
11642;SDS011;5877;50.930;6.918;2022-08-18T13:12:14;16.97;;;15.20;;
11642;SDS011;5877;50.930;6.918;2022-08-18T13:14:46;16.23;;;14.67;;
11642;SDS011;5877;50.930;6.918;2022-08-18T13:17:14;16.97;;;15.57;;
11642;SDS011;5877;50.930;6.918;2022-08-18T13:20:07;16.53;;;15.13;;
11642;SDS011;5877;50.930;6.918;2022-08-18T13:22:39;14.83;;;12.90;;
11642;SDS011;5877;50.930;6.918;2022-08-18T13:25:08;11.10;;;10.07;;
11642;SDS011;5877;50.930;6.918;2022-08-18T13:27:58;13.00;;;10.73;;
11642;SDS011;5877;50.930;6.918;2022-08-18T13:30:27;10.43;;;9.43;;
11642;SDS011;5877;50.930;6.918;2022-08-18T13:32:58;10.03;;;9.07;;
11642;SDS011;5877;50.930;6.918;2022-08-18T13:35:46;10.97;;;8.60;;
11642;SDS011;5877;50.930;6.918;2022-08-18T13:38:20;8.83;;;7.93;;
11642;SDS011;5877;50.930;6.918;2022-08-18T13:40:55;9.77;;;8.97;;
11642;SDS011;5877;50.930;6.918;2022-08-18T13:43:28;9.57;;;8.67;;
11642;SDS011;5877;50.930;6.918;2022-08-18T13:45:57;8.37;;;7.57;;
11642;SDS011;5877;50.930;6.918;2022-08-18T13:48:26;9.83;;;8.93;;
11642;SDS011;5877;50.930;6.918;2022-08-18T13:50:55;11.17;;;10.07;;
11642;SDS011;5877;50.930;6.918;2022-08-18T13:53:27;10.67;;;9.63;;
11642;SDS011;5877;50.930;6.918;2022-08-18T13:55:57;8.97;;;8.10;;
11642;SDS011;5877;50.930;6.918;2022-08-18T13:58:25;10.83;;;7.50;;
11642;SDS011;5877;50.930;6.918;2022-08-18T14:01:01;8.13;;;7.43;;
11642;SDS011;5877;50.930;6.918;2022-08-18T14:03:51;7.70;;;7.00;;
11642;SDS011;5877;50.930;6.918;2022-08-18T14:06:18;10.17;;;7.90;;
11642;SDS011;5877;50.930;6.918;2022-08-18T14:08:50;8.60;;;7.90;;
11642;SDS011;5877;50.930;6.918;2022-08-18T14:11:20;10.00;;;8.80;;
11642;SDS011;5877;50.930;6.918;2022-08-18T14:13:59;8.83;;;7.97;;
11642;SDS011;5877;50.930;6.918;2022-08-18T14:16:27;10.30;;;9.30;;
11642;SDS011;5877;50.930;6.918;2022-08-18T14:18:56;9.57;;;8.77;;
11642;SDS011;5877;50.930;6.918;2022-08-18T14:21:47;9.57;;;8.77;;
11642;SDS011;5877;50.930;6.918;2022-08-18T14:24:37;9.83;;;8.87;;
11642;SDS011;5877;50.930;6.918;2022-08-18T14:27:30;9.63;;;8.80;;
11642;SDS011;5877;50.930;6.918;2022-08-18T14:30:02;9.80;;;8.10;;
11642;SDS011;5877;50.930;6.918;2022-08-18T14:32:33;7.97;;;7.27;;
11642;SDS011;5877;50.930;6.918;2022-08-18T14:35:02;10.77;;;8.97;;
11642;SDS011;5877;50.930;6.918;2022-08-18T14:37:51;8.20;;;7.50;;
11642;SDS011;5877;50.930;6.918;2022-08-18T14:40:22;7.40;;;6.70;;
11642;SDS011;5877;50.930;6.918;2022-08-18T14:42:49;8.60;;;7.50;;
11642;SDS011;5877;50.930;6.918;2022-08-18T14:45:21;8.10;;;7.10;;
11642;SDS011;5877;50.930;6.918;2022-08-18T14:48:00;7.57;;;6.77;;
11642;SDS011;5877;50.930;6.918;2022-08-18T14:50:32;7.27;;;6.77;;
11642;SDS011;5877;50.930;6.918;2022-08-18T14:53:00;8.30;;;7.47;;
11642;SDS011;5877;50.930;6.918;2022-08-18T14:55:28;8.87;;;7.50;;
11642;SDS011;5877;50.930;6.918;2022-08-18T14:57:56;7.03;;;6.40;;
11642;SDS011;5877;50.930;6.918;2022-08-18T15:00:25;7.73;;;6.93;;
11642;SDS011;5877;50.930;6.918;2022-08-18T15:02:53;6.87;;;6.17;;
11642;SDS011;5877;50.930;6.918;2022-08-18T15:05:20;6.90;;;6.00;;
11642;SDS011;5877;50.930;6.918;2022-08-18T15:07:50;7.53;;;6.80;;
11642;SDS011;5877;50.930;6.918;2022-08-18T15:10:18;7.63;;;6.80;;
11642;SDS011;5877;50.930;6.918;2022-08-18T15:12:56;6.77;;;6.07;;
11642;SDS011;5877;50.930;6.918;2022-08-18T15:15:30;6.60;;;6.10;;
11642;SDS011;5877;50.930;6.918;2022-08-18T15:18:16;6.87;;;6.27;;
11642;SDS011;5877;50.930;6.918;2022-08-18T15:20:51;7.07;;;6.57;;
11642;SDS011;5877;50.930;6.918;2022-08-18T15:23:57;11.27;;;8.13;;
11642;SDS011;5877;50.930;6.918;2022-08-18T15:26:46;9.37;;;7.47;;
11642;SDS011;5877;50.930;6.918;2022-08-18T15:29:25;8.47;;;7.60;;
11642;SDS011;5877;50.930;6.918;2022-08-18T15:31:55;7.93;;;7.23;;
11642;SDS011;5877;50.930;6.918;2022-08-18T15:34:32;10.17;;;7.57;;
11642;SDS011;5877;50.930;6.918;2022-08-18T15:37:12;7.73;;;7.13;;
11642;SDS011;5877;50.930;6.918;2022-08-18T15:39:39;11.60;;;8.17;;
11642;SDS011;5877;50.930;6.918;2022-08-18T15:42:08;8.27;;;7.57;;
11642;SDS011;5877;50.930;6.918;2022-08-18T15:44:36;7.90;;;7.20;;
11642;SDS011;5877;50.930;6.918;2022-08-18T15:47:04;9.67;;;8.70;;
11642;SDS011;5877;50.930;6.918;2022-08-18T15:49:35;8.83;;;8.03;;
11642;SDS011;5877;50.930;6.918;2022-08-18T15:52:02;9.10;;;8.30;;
11642;SDS011;5877;50.930;6.918;2022-08-18T15:54:29;10.37;;;9.30;;
11642;SDS011;5877;50.930;6.918;2022-08-18T15:56:57;27.30;;;24.40;;
11642;SDS011;5877;50.930;6.918;2022-08-18T15:59:27;22.70;;;19.13;;
11642;SDS011;5877;50.930;6.918;2022-08-18T16:02:06;32.43;;;26.10;;
11642;SDS011;5877;50.930;6.918;2022-08-18T16:04:38;19.17;;;16.03;;
11642;SDS011;5877;50.930;6.918;2022-08-18T16:07:10;10.87;;;9.57;;
11642;SDS011;5877;50.930;6.918;2022-08-18T16:09:38;10.00;;;9.10;;
11642;SDS011;5877;50.930;6.918;2022-08-18T16:12:07;11.20;;;10.10;;
11642;SDS011;5877;50.930;6.918;2022-08-18T16:14:38;11.07;;;9.80;;
11642;SDS011;5877;50.930;6.918;2022-08-18T16:17:06;12.83;;;11.77;;
11642;SDS011;5877;50.930;6.918;2022-08-18T16:19:43;11.83;;;10.67;;
11642;SDS011;5877;50.930;6.918;2022-08-18T16:22:11;11.80;;;10.60;;
11642;SDS011;5877;50.930;6.918;2022-08-18T16:24:39;12.47;;;11.10;;
11642;SDS011;5877;50.930;6.918;2022-08-18T16:27:06;10.80;;;9.97;;
11642;SDS011;5877;50.930;6.918;2022-08-18T16:29:34;12.30;;;11.10;;
11642;SDS011;5877;50.930;6.918;2022-08-18T16:32:02;14.00;;;11.03;;
11642;SDS011;5877;50.930;6.918;2022-08-18T16:34:41;14.13;;;10.90;;
11642;SDS011;5877;50.930;6.918;2022-08-18T16:37:09;12.40;;;11.10;;
11642;SDS011;5877;50.930;6.918;2022-08-18T16:39:37;11.43;;;10.43;;
11642;SDS011;5877;50.930;6.918;2022-08-18T16:42:05;12.60;;;10.87;;
11642;SDS011;5877;50.930;6.918;2022-08-18T16:44:33;11.70;;;10.80;;
11642;SDS011;5877;50.930;6.918;2022-08-18T16:47:04;13.10;;;11.87;;
11642;SDS011;5877;50.930;6.918;2022-08-18T16:49:33;11.50;;;10.50;;
11642;SDS011;5877;50.930;6.918;2022-08-18T16:52:01;11.47;;;10.57;;
11642;SDS011;5877;50.930;6.918;2022-08-18T16:54:29;13.17;;;11.87;;
11642;SDS011;5877;50.930;6.918;2022-08-18T16:56:56;14.00;;;11.77;;
11642;SDS011;5877;50.930;6.918;2022-08-18T16:59:24;12.37;;;11.27;;
11642;SDS011;5877;50.930;6.918;2022-08-18T17:02:10;11.97;;;10.90;;
11642;SDS011;5877;50.930;6.918;2022-08-18T17:04:58;10.63;;;9.53;;
11642;SDS011;5877;50.930;6.918;2022-08-18T17:07:29;12.67;;;9.97;;
11642;SDS011;5877;50.930;6.918;2022-08-18T17:09:57;11.53;;;10.27;;
11642;SDS011;5877;50.930;6.918;2022-08-18T17:12:26;11.03;;;9.73;;
11642;SDS011;5877;50.930;6.918;2022-08-18T17:15:00;10.37;;;9.37;;
11642;SDS011;5877;50.930;6.918;2022-08-18T17:17:30;11.27;;;10.00;;
11642;SDS011;5877;50.930;6.918;2022-08-18T17:19:57;13.80;;;9.10;;
11642;SDS011;5877;50.930;6.918;2022-08-18T17:22:25;10.77;;;9.30;;
11642;SDS011;5877;50.930;6.918;2022-08-18T17:24:55;9.10;;;8.30;;
11642;SDS011;5877;50.930;6.918;2022-08-18T17:27:27;10.80;;;9.70;;
11642;SDS011;5877;50.930;6.918;2022-08-18T17:30:13;10.93;;;9.10;;
11642;SDS011;5877;50.930;6.918;2022-08-18T17:36:00;9.87;;;8.60;;
11642;SDS011;5877;50.930;6.918;2022-08-18T17:41:02;10.53;;;8.07;;
11642;SDS011;5877;50.930;6.918;2022-08-18T17:43:34;10.73;;;7.33;;
11642;SDS011;5877;50.930;6.918;2022-08-18T17:48:59;13.60;;;8.40;;
11642;SDS011;5877;50.930;6.918;2022-08-18T17:51:51;9.70;;;8.50;;
11642;SDS011;5877;50.930;6.918;2022-08-18T17:57:07;9.97;;;7.20;;
11642;SDS011;5877;50.930;6.918;2022-08-18T17:59:39;8.83;;;7.37;;
11642;SDS011;5877;50.930;6.918;2022-08-18T18:02:19;9.93;;;7.50;;
11642;SDS011;5877;50.930;6.918;2022-08-18T18:11:25;9.00;;;8.07;;